createdAt,value
2019-06-15T00:02:20.293Z,13.20
2019-06-15T00:04:47.749Z,13.67
2019-06-15T00:07:14.992Z,16.13
2019-06-15T00:09:42.218Z,10.33
2019-06-15T00:12:09.374Z,12.90
2019-06-15T00:14:36.598Z,8.57
2019-06-15T00:17:04.421Z,12.43
2019-06-15T00:19:31.670Z,7.37
2019-06-15T00:21:59.283Z,13.73
2019-06-15T00:24:34.872Z,9.90
2019-06-15T00:26:55.615Z,10.63
2019-06-15T00:29:22.834Z,11.77
2019-06-15T00:31:50.061Z,14.00
2019-06-15T00:34:17.389Z,7.93
2019-06-15T00:36:44.897Z,9.17
2019-06-15T00:39:12.445Z,9.97
2019-06-15T00:41:39.669Z,12.27
2019-06-15T00:44:07.323Z,10.47
2019-06-15T00:46:34.613Z,12.43
2019-06-15T00:49:02.278Z,10.13
2019-06-15T00:51:29.514Z,11.73
2019-06-15T00:53:56.741Z,10.77
2019-06-15T00:56:24.242Z,12.03
2019-06-15T00:58:52.598Z,8.53
2019-06-15T01:01:19.952Z,10.67
2019-06-15T01:03:47.260Z,9.83
2019-06-15T01:06:14.614Z,11.53
2019-06-15T01:08:41.837Z,13.87
2019-06-15T01:11:09.007Z,9.53
2019-06-15T01:13:36.310Z,8.70
2019-06-15T01:16:03.671Z,12.83
2019-06-15T01:18:31.246Z,8.20
2019-06-15T01:20:58.401Z,12.43
2019-06-15T01:23:25.956Z,9.57
2019-06-15T01:25:53.274Z,10.53
2019-06-15T01:28:20.528Z,7.13
2019-06-15T01:30:47.911Z,8.87
2019-06-15T01:33:15.388Z,8.23
2019-06-15T01:35:43.036Z,8.53
2019-06-15T01:38:10.269Z,12.07
2019-06-15T01:40:37.497Z,8.33
2019-06-15T01:43:05.298Z,11.47
2019-06-15T01:45:32.514Z,13.33
2019-06-15T01:48:00.014Z,11.03
2019-06-15T01:50:27.221Z,14.63
2019-06-15T01:52:54.712Z,11.70
2019-06-15T01:55:22.274Z,8.63
2019-06-15T01:57:49.837Z,8.83
2019-06-15T02:00:26.085Z,10.20
2019-06-15T02:02:53.337Z,11.20
2019-06-15T02:05:21.121Z,9.17
2019-06-15T02:07:48.768Z,9.67
2019-06-15T02:10:17.329Z,9.90
2019-06-15T02:12:45.019Z,10.30
2019-06-15T02:15:12.782Z,9.53
2019-06-15T02:17:40.069Z,7.87
2019-06-15T02:20:07.905Z,7.77
2019-06-15T02:22:35.157Z,11.00
2019-06-15T02:25:02.402Z,9.30
2019-06-15T02:27:29.989Z,13.10
2019-06-15T02:29:57.308Z,9.33
2019-06-15T02:32:24.977Z,8.87
2019-06-15T02:34:52.540Z,10.80
2019-06-15T02:37:19.865Z,8.90
2019-06-15T02:39:47.186Z,8.57
2019-06-15T02:42:14.697Z,16.33
2019-06-15T02:44:42.261Z,11.50
2019-06-15T02:47:09.820Z,11.03
2019-06-15T02:49:37.041Z,11.47
2019-06-15T02:52:04.549Z,16.43
2019-06-15T02:54:32.190Z,15.53
2019-06-15T02:56:59.324Z,17.23
2019-06-15T02:59:26.541Z,11.10
2019-06-15T03:01:54.149Z,14.10
2019-06-15T03:04:21.285Z,15.33
2019-06-15T03:06:48.537Z,14.30
2019-06-15T03:09:16.034Z,15.37
2019-06-15T03:11:43.261Z,17.10
2019-06-15T03:14:10.382Z,11.83
2019-06-15T03:16:37.648Z,15.53
2019-06-15T03:19:05.325Z,16.20
2019-06-15T03:21:32.882Z,15.47
2019-06-15T03:24:00.010Z,13.73
2019-06-15T03:26:27.594Z,15.70
2019-06-15T03:28:54.815Z,13.93
2019-06-15T03:31:22.075Z,13.97
2019-06-15T03:33:49.295Z,10.23
2019-06-15T03:36:16.567Z,14.33
2019-06-15T03:38:44.157Z,14.67
2019-06-15T03:41:11.714Z,16.73
2019-06-15T03:43:38.937Z,12.57
2019-06-15T03:46:06.428Z,14.00
2019-06-15T03:48:33.745Z,12.50
2019-06-15T03:51:01.388Z,13.93
2019-06-15T03:53:28.671Z,10.83
2019-06-15T03:55:56.350Z,14.87
2019-06-15T03:58:23.501Z,15.30
2019-06-15T04:01:05.095Z,14.03
2019-06-15T04:03:32.317Z,15.37
2019-06-15T04:06:00.206Z,14.07
2019-06-15T04:08:27.453Z,18.47
2019-06-15T04:10:54.578Z,19.53
2019-06-15T04:13:22.166Z,21.17
2019-06-15T04:15:49.388Z,20.90
2019-06-15T04:18:16.539Z,20.83
2019-06-15T04:20:44.032Z,22.37
2019-06-15T04:23:11.392Z,22.53
2019-06-15T04:25:38.938Z,25.23
2019-06-15T04:28:06.195Z,28.07
2019-06-15T04:30:33.754Z,24.77
2019-06-15T04:33:00.917Z,26.77
2019-06-15T04:35:28.141Z,29.87
2019-06-15T04:37:55.467Z,28.70
2019-06-15T04:40:22.716Z,26.43
2019-06-15T04:42:50.169Z,27.07
2019-06-15T04:45:17.397Z,34.37
2019-06-15T04:47:44.673Z,25.63
2019-06-15T04:50:12.377Z,28.47
2019-06-15T04:52:39.637Z,28.47
2019-06-15T04:55:07.186Z,27.43
2019-06-15T04:57:34.434Z,27.97
2019-06-15T05:00:01.860Z,25.80
2019-06-15T05:02:29.482Z,26.60
2019-06-15T05:04:56.713Z,24.70
2019-06-15T05:07:24.265Z,28.17
2019-06-15T05:09:51.398Z,28.50
2019-06-15T05:12:18.776Z,25.80
2019-06-15T05:14:46.330Z,26.80
2019-06-15T05:17:13.889Z,25.23
2019-06-15T05:19:41.449Z,23.43
2019-06-15T05:22:08.677Z,28.40
2019-06-15T05:24:35.913Z,23.47
2019-06-15T05:27:06.603Z,19.37
2019-06-15T05:29:32.285Z,18.73
2019-06-15T05:31:59.522Z,20.77
2019-06-15T05:34:27.106Z,19.80
2019-06-15T05:36:54.581Z,20.80
2019-06-15T05:39:22.121Z,17.47
2019-06-15T05:41:49.242Z,17.47
2019-06-15T05:44:16.361Z,18.50
2019-06-15T05:46:43.672Z,18.43
2019-06-15T05:49:10.898Z,16.77
2019-06-15T05:51:38.218Z,16.43
2019-06-15T05:54:05.733Z,17.07
2019-06-15T05:56:33.564Z,16.07
2019-06-15T05:59:01.260Z,15.97
2019-06-15T06:01:28.567Z,18.63
2019-06-15T06:03:55.689Z,16.77
2019-06-15T06:06:22.910Z,15.90
2019-06-15T06:08:50.130Z,15.87
2019-06-15T06:11:17.737Z,14.30
2019-06-15T06:13:45.062Z,14.63
2019-06-15T06:16:12.285Z,11.50
2019-06-15T06:18:39.501Z,11.37
2019-06-15T06:21:06.730Z,9.60
2019-06-15T06:23:34.443Z,8.17
2019-06-15T06:26:02.334Z,8.90
2019-06-15T06:28:30.334Z,7.33
2019-06-15T06:30:57.563Z,7.33
2019-06-15T06:33:24.965Z,6.23
2019-06-15T06:35:52.933Z,4.83
2019-06-15T06:38:20.675Z,6.70
2019-06-15T06:40:47.894Z,4.00
2019-06-15T06:43:15.378Z,5.47
2019-06-15T06:45:43.299Z,3.83
2019-06-15T06:48:10.633Z,3.60
2019-06-15T06:50:40.579Z,5.17
2019-06-15T06:53:07.390Z,4.17
2019-06-15T06:55:34.607Z,1.93
2019-06-15T06:58:01.893Z,3.40
2019-06-15T07:00:29.518Z,3.53
2019-06-15T07:02:57.128Z,3.63
2019-06-15T07:05:24.745Z,5.07
2019-06-15T07:07:51.984Z,2.63
2019-06-15T07:10:19.664Z,2.93
2019-06-15T07:12:47.052Z,5.50
2019-06-15T07:15:14.775Z,4.37
2019-06-15T07:17:42.019Z,3.13
2019-06-15T07:20:09.593Z,3.03
2019-06-15T07:22:36.833Z,5.67
2019-06-15T07:25:04.398Z,2.23
2019-06-15T07:27:31.914Z,2.63
2019-06-15T07:29:59.337Z,2.90
2019-06-15T07:32:26.655Z,2.73
2019-06-15T07:34:53.997Z,3.10
2019-06-15T07:37:21.678Z,3.73
2019-06-15T07:39:49.544Z,2.33
2019-06-15T07:42:17.001Z,3.53
2019-06-15T07:44:44.287Z,3.40
2019-06-15T07:47:12.792Z,3.17
2019-06-15T07:49:40.052Z,2.90
2019-06-15T07:52:07.282Z,2.33
2019-06-15T07:54:36.280Z,1.67
2019-06-15T07:57:04.706Z,3.33
2019-06-15T07:59:31.971Z,1.33
2019-06-15T08:01:59.189Z,2.03
2019-06-15T08:04:26.442Z,2.60
2019-06-15T08:06:54.113Z,2.50
2019-06-15T08:09:21.364Z,1.07
2019-06-15T08:11:48.829Z,1.70
2019-06-15T08:14:16.426Z,0.77
2019-06-15T08:16:44.057Z,1.90
2019-06-15T08:19:11.442Z,1.27
2019-06-15T08:21:38.754Z,0.50
2019-06-15T08:24:06.258Z,1.70
2019-06-15T08:26:33.487Z,0.60
2019-06-15T08:29:01.137Z,1.03
2019-06-15T08:31:28.796Z,0.50
2019-06-15T08:33:56.369Z,0.73
2019-06-15T08:36:23.914Z,2.67
2019-06-15T08:38:52.275Z,0.77
2019-06-15T08:41:19.534Z,1.03
2019-06-15T08:43:46.790Z,0.63
2019-06-15T08:46:14.035Z,1.07
2019-06-15T08:48:41.397Z,0.87
2019-06-15T08:51:08.622Z,0.90
2019-06-15T08:53:36.197Z,1.23
2019-06-15T08:56:03.420Z,0.60
2019-06-15T08:58:30.645Z,0.90
2019-06-15T09:00:57.890Z,1.83
2019-06-15T09:03:25.526Z,1.43
2019-06-15T09:05:52.654Z,1.37
2019-06-15T09:08:19.966Z,2.20
2019-06-15T09:10:47.200Z,1.23
2019-06-15T09:13:14.448Z,0.93
2019-06-15T09:15:49.740Z,0.90
2019-06-15T09:18:16.963Z,0.73
2019-06-15T09:20:44.092Z,2.40
2019-06-15T09:23:11.405Z,1.23
2019-06-15T09:25:38.654Z,0.70
2019-06-15T09:28:06.122Z,1.03
2019-06-15T09:30:33.381Z,0.87
2019-06-15T09:33:00.602Z,2.13
2019-06-15T09:35:27.826Z,0.63
2019-06-15T09:37:55.058Z,0.73
2019-06-15T09:40:22.288Z,0.80
2019-06-15T09:42:49.522Z,1.33
2019-06-15T09:45:16.738Z,2.53
2019-06-15T09:47:44.355Z,1.20
2019-06-15T09:50:11.675Z,1.27
2019-06-15T09:52:39.458Z,1.30
2019-06-15T09:55:06.958Z,1.07
2019-06-15T09:57:34.910Z,1.20
2019-06-15T10:00:03.022Z,1.83
2019-06-15T10:02:30.733Z,0.90
2019-06-15T10:04:58.032Z,1.17
2019-06-15T10:07:25.689Z,4.00
2019-06-15T10:09:53.014Z,1.00
2019-06-15T10:12:20.277Z,1.20
2019-06-15T10:14:47.619Z,2.20
2019-06-15T10:17:15.142Z,1.67
2019-06-15T10:19:42.421Z,1.30
2019-06-15T10:22:10.077Z,1.20
2019-06-15T10:24:37.394Z,1.67
2019-06-15T10:27:24.274Z,3.97
2019-06-15T10:29:51.538Z,3.60
2019-06-15T10:32:18.783Z,4.57
2019-06-15T10:34:46.313Z,1.50
2019-06-15T10:37:13.886Z,2.07
2019-06-15T10:39:41.539Z,1.00
2019-06-15T10:42:09.112Z,0.80
2019-06-15T10:44:36.748Z,2.43
2019-06-15T10:47:04.201Z,1.07
2019-06-15T10:49:31.437Z,1.77
2019-06-15T10:51:58.573Z,1.77
2019-06-15T10:54:25.791Z,0.87
2019-06-15T10:56:53.309Z,0.40
2019-06-15T10:59:20.529Z,1.03
2019-06-15T11:01:47.758Z,1.13
2019-06-15T11:04:14.991Z,0.60
2019-06-15T11:06:42.304Z,0.60
2019-06-15T11:09:09.488Z,0.50
2019-06-15T11:11:37.149Z,3.50
2019-06-15T11:14:06.520Z,0.50
2019-06-15T11:16:33.843Z,0.90
2019-06-15T11:19:01.113Z,0.97
2019-06-15T11:21:28.392Z,1.27
2019-06-15T11:23:55.723Z,0.70
2019-06-15T11:26:22.854Z,1.87
2019-06-15T11:28:50.169Z,0.50
2019-06-15T11:31:17.712Z,0.70
2019-06-15T11:33:44.921Z,1.63
2019-06-15T11:36:12.416Z,1.47
2019-06-15T11:38:39.969Z,1.53
2019-06-15T11:41:07.410Z,0.63
2019-06-15T11:43:34.627Z,0.70
2019-06-15T11:46:02.126Z,2.27
2019-06-15T11:48:29.251Z,1.90
2019-06-15T11:50:56.793Z,1.30
2019-06-15T11:53:24.713Z,0.60
2019-06-15T11:55:52.074Z,0.87
2019-06-15T11:58:19.669Z,0.53
2019-06-15T12:00:46.997Z,1.43
2019-06-15T12:03:14.674Z,0.80
2019-06-15T12:05:42.301Z,1.00
2019-06-15T12:08:09.784Z,1.53
2019-06-15T12:10:37.629Z,0.83
2019-06-15T12:13:05.298Z,1.80
2019-06-15T12:15:33.599Z,0.90
2019-06-15T12:18:00.797Z,0.90
2019-06-15T12:20:27.961Z,2.07
2019-06-15T12:22:55.205Z,2.13
2019-06-15T12:25:22.470Z,1.60
2019-06-15T12:27:49.704Z,2.03
2019-06-15T12:30:24.029Z,0.80
2019-06-15T12:32:51.251Z,2.30
2019-06-15T12:35:18.581Z,0.97
2019-06-15T12:37:46.092Z,1.80
2019-06-15T12:40:13.285Z,1.00
2019-06-15T12:42:40.526Z,2.17
2019-06-15T12:45:07.942Z,1.60
2019-06-15T12:47:35.285Z,1.03
2019-06-15T12:50:02.570Z,2.80
2019-06-15T12:52:29.901Z,1.10
2019-06-15T12:54:57.382Z,1.10
2019-06-15T12:57:24.800Z,1.57
2019-06-15T12:59:52.161Z,2.10
2019-06-15T13:02:19.845Z,1.20
2019-06-15T13:04:47.516Z,1.50
2019-06-15T13:07:14.742Z,1.20
2019-06-15T13:09:42.242Z,1.00
2019-06-15T13:12:09.773Z,1.30
2019-06-15T13:14:36.994Z,0.90
2019-06-15T13:17:04.587Z,1.90
2019-06-15T13:19:31.716Z,1.80
2019-06-15T13:22:01.041Z,2.03
2019-06-15T13:24:33.457Z,1.53
2019-06-15T13:27:00.716Z,2.00
2019-06-15T13:29:28.321Z,1.00
2019-06-15T13:31:55.587Z,1.10
2019-06-15T13:34:22.813Z,1.43
2019-06-15T13:36:50.070Z,0.90
2019-06-15T13:39:17.635Z,1.20
2019-06-15T13:41:44.874Z,5.53
2019-06-15T13:44:12.102Z,1.00
2019-06-15T13:46:39.359Z,3.17
2019-06-15T13:49:06.678Z,1.63
2019-06-15T13:51:33.937Z,1.47
2019-06-15T13:54:01.073Z,1.67
2019-06-15T13:56:28.326Z,1.10
2019-06-15T13:58:55.953Z,1.20
2019-06-15T14:01:33.668Z,1.13
2019-06-15T14:03:52.687Z,2.63
2019-06-15T14:06:19.833Z,5.87
2019-06-15T14:08:46.955Z,2.67
2019-06-15T14:11:14.211Z,3.10
2019-06-15T14:13:41.828Z,1.70
2019-06-15T14:16:08.972Z,1.30
2019-06-15T14:18:36.202Z,3.03
2019-06-15T14:21:03.398Z,1.53
2019-06-15T14:23:30.634Z,2.87
2019-06-15T14:25:58.192Z,1.50
2019-06-15T14:28:25.946Z,1.50
2019-06-15T14:30:53.173Z,1.73
2019-06-15T14:33:20.765Z,2.13
2019-06-15T14:35:47.998Z,3.23
2019-06-15T14:38:15.316Z,4.17
2019-06-15T14:40:42.630Z,1.97
2019-06-15T14:43:10.210Z,1.47
2019-06-15T14:45:37.347Z,1.40
2019-06-15T14:48:04.579Z,3.13
2019-06-15T14:50:32.158Z,1.50
2019-06-15T14:52:59.382Z,2.03
2019-06-15T14:55:26.605Z,1.87
2019-06-15T14:57:53.953Z,3.37
2019-06-15T15:00:21.278Z,1.80
2019-06-15T15:02:48.597Z,1.70
2019-06-15T15:05:17.998Z,2.20
2019-06-15T15:07:46.898Z,2.47
2019-06-15T15:10:16.341Z,1.80
2019-06-15T15:12:45.901Z,2.13
2019-06-15T15:15:12.525Z,1.90
2019-06-15T15:17:39.755Z,1.60
2019-06-15T15:20:07.585Z,3.10
2019-06-15T15:22:36.932Z,3.47
2019-06-15T15:25:06.410Z,1.63
2019-06-15T15:27:33.334Z,1.70
2019-06-15T15:30:00.865Z,2.83
2019-06-15T15:32:31.521Z,2.10
2019-06-15T15:34:57.466Z,3.40
2019-06-15T15:37:26.731Z,3.67
2019-06-15T15:39:56.298Z,3.07
2019-06-15T15:42:23.468Z,1.87
2019-06-15T15:44:50.758Z,3.27
2019-06-15T15:47:18.286Z,2.00
2019-06-15T15:49:47.219Z,1.87
2019-06-15T15:52:16.989Z,1.67
2019-06-15T15:54:43.660Z,2.77
2019-06-15T15:57:11.494Z,2.53
2019-06-15T15:59:38.925Z,3.43
2019-06-15T16:02:06.681Z,2.00
2019-06-15T16:04:36.966Z,2.20
2019-06-15T16:07:03.238Z,2.20
2019-06-15T16:09:30.742Z,2.40
2019-06-15T16:11:58.383Z,4.23
2019-06-15T16:14:26.614Z,3.40
2019-06-15T16:16:55.972Z,2.00
2019-06-15T16:19:23.266Z,3.37
2019-06-15T16:21:50.769Z,2.10
2019-06-15T16:24:18.085Z,2.40
2019-06-15T16:26:46.716Z,2.10
2019-06-15T16:29:16.161Z,4.50
2019-06-15T16:31:45.867Z,5.43
2019-06-15T16:34:12.715Z,2.00
2019-06-15T16:36:40.066Z,2.23
2019-06-15T16:39:07.501Z,3.87
2019-06-15T16:41:36.434Z,3.40
2019-06-15T16:44:06.866Z,1.97
2019-06-15T16:46:33.485Z,3.03
2019-06-15T16:49:00.826Z,2.87
2019-06-15T16:51:28.429Z,2.47
2019-06-15T16:53:57.022Z,3.10
2019-06-15T16:56:26.636Z,2.83
2019-06-15T16:58:55.960Z,3.53
2019-06-15T17:01:23.617Z,2.37
2019-06-15T17:03:50.892Z,2.63
2019-06-15T17:06:18.407Z,3.27
2019-06-15T17:08:46.519Z,2.53
2019-06-15T17:11:14.066Z,2.13
2019-06-15T17:13:41.235Z,2.30
2019-06-15T17:16:08.615Z,5.13
2019-06-15T17:18:36.616Z,3.13
2019-06-15T17:21:06.790Z,3.47
2019-06-15T17:23:33.419Z,4.97
2019-06-15T17:26:00.921Z,2.53
2019-06-15T17:28:28.064Z,2.47
2019-06-15T17:30:56.697Z,2.37
2019-06-15T17:33:34.458Z,7.37
2019-06-15T17:35:59.911Z,3.30
2019-06-15T17:38:23.719Z,4.33
2019-06-15T17:40:51.003Z,3.90
2019-06-15T17:43:18.778Z,2.53
2019-06-15T17:45:46.819Z,4.93
2019-06-15T17:48:17.099Z,2.47
2019-06-15T17:50:47.697Z,3.70
2019-06-15T17:53:16.972Z,3.77
2019-06-15T17:55:46.471Z,3.97
2019-06-15T17:58:16.669Z,2.40
2019-06-15T18:00:47.207Z,5.00
2019-06-15T18:03:17.030Z,2.47
2019-06-15T18:05:43.802Z,3.03
2019-06-15T18:08:11.142Z,4.13
2019-06-15T18:10:38.702Z,2.83
2019-06-15T18:13:07.110Z,2.73
2019-06-15T18:15:36.281Z,3.37
2019-06-15T18:18:03.937Z,4.33
2019-06-15T18:20:31.515Z,2.33
2019-06-15T18:22:58.669Z,2.40
2019-06-15T18:25:26.497Z,2.70
2019-06-15T18:27:53.953Z,3.93
2019-06-15T18:30:21.280Z,2.83
2019-06-15T18:32:48.553Z,2.70
2019-06-15T18:35:16.961Z,4.43
2019-06-15T18:37:46.181Z,2.00
2019-06-15T18:40:15.948Z,2.17
2019-06-15T18:42:42.795Z,3.07
2019-06-15T18:45:10.625Z,3.37
2019-06-15T18:47:38.118Z,4.03
2019-06-15T18:50:07.525Z,3.50
2019-06-15T18:52:37.636Z,2.50
2019-06-15T18:55:04.289Z,2.97
2019-06-15T18:57:31.853Z,2.50
2019-06-15T18:59:59.081Z,3.93
2019-06-15T19:02:26.695Z,5.63
2019-06-15T19:04:56.499Z,2.87
2019-06-15T19:07:23.239Z,2.70
2019-06-15T19:09:50.767Z,3.63
2019-06-15T19:12:20.765Z,3.33
2019-06-15T19:14:47.222Z,2.90
2019-06-15T19:17:16.457Z,3.57
2019-06-15T19:19:43.616Z,3.13
2019-06-15T19:22:12.038Z,3.30
2019-06-15T19:24:39.262Z,2.90
2019-06-15T19:27:08.308Z,3.10
2019-06-15T19:29:36.324Z,2.93
2019-06-15T19:32:03.843Z,3.93
2019-06-15T19:34:43.269Z,3.53
2019-06-15T19:37:00.310Z,5.07
2019-06-15T19:39:27.713Z,4.27
2019-06-15T19:41:56.301Z,5.23
2019-06-15T19:44:23.670Z,4.10
2019-06-15T19:46:50.909Z,4.70
2019-06-15T19:49:18.138Z,5.00
2019-06-15T19:51:47.244Z,4.27
2019-06-15T19:54:16.038Z,5.17
2019-06-15T19:56:43.257Z,5.87
2019-06-15T19:59:10.501Z,5.00
2019-06-15T20:01:38.106Z,5.53
2019-06-15T20:04:06.569Z,8.17
2019-06-15T20:06:36.882Z,6.03
2019-06-15T20:09:08.316Z,4.50
2019-06-15T20:11:36.853Z,5.67
2019-06-15T20:14:06.672Z,5.30
2019-06-15T20:16:35.973Z,5.27
2019-06-15T20:19:02.916Z,5.33
2019-06-15T20:21:30.442Z,5.60
2019-06-15T20:23:57.690Z,6.13
2019-06-15T20:26:26.790Z,5.33
2019-06-15T20:28:56.333Z,6.43
2019-06-15T20:31:23.201Z,7.03
2019-06-15T20:33:52.355Z,6.77
2019-06-15T20:36:20.016Z,6.33
2019-06-15T20:38:47.769Z,6.43
2019-06-15T20:41:16.380Z,6.73
2019-06-15T20:43:46.042Z,5.47
2019-06-15T20:46:13.470Z,5.83
2019-06-15T20:48:40.585Z,5.17
2019-06-15T20:51:10.319Z,5.40
2019-06-15T20:53:37.253Z,7.80
2019-06-15T20:56:06.701Z,7.20
2019-06-15T20:58:36.974Z,6.20
2019-06-15T21:01:03.289Z,6.47
2019-06-15T21:03:30.599Z,6.90
2019-06-15T21:05:57.724Z,7.00
2019-06-15T21:08:26.736Z,7.97
2019-06-15T21:10:56.382Z,8.07
2019-06-15T21:13:26.221Z,7.60
2019-06-15T21:15:52.957Z,7.53
2019-06-15T21:18:20.488Z,11.13
2019-06-15T21:20:47.629Z,6.80
2019-06-15T21:23:16.314Z,7.60
2019-06-15T21:25:46.445Z,7.73
2019-06-15T21:28:12.730Z,7.23
2019-06-15T21:30:39.953Z,7.63
2019-06-15T21:33:07.254Z,7.70
2019-06-15T21:35:48.611Z,6.77
2019-06-15T21:38:06.431Z,7.97
2019-06-15T21:40:36.617Z,6.83
2019-06-15T21:43:02.881Z,7.23
2019-06-15T21:45:49.597Z,6.27
2019-06-15T21:48:16.822Z,6.13
2019-06-15T21:50:46.986Z,6.60
2019-06-15T21:53:16.018Z,7.13
2019-06-15T21:55:42.578Z,6.07
2019-06-15T21:58:09.833Z,5.83
2019-06-15T22:00:47.830Z,6.20
2019-06-15T22:03:16.917Z,5.90
2019-06-15T22:05:47.288Z,6.47
2019-06-15T22:08:13.702Z,6.83
2019-06-15T22:10:40.965Z,8.67
2019-06-15T22:13:08.082Z,6.53
2019-06-15T22:15:35.619Z,7.83
2019-06-15T22:18:02.933Z,6.57
2019-06-15T22:20:30.543Z,7.50
2019-06-15T22:22:58.293Z,8.17
2019-06-15T22:25:26.558Z,8.30
2019-06-15T22:27:56.065Z,8.87
2019-06-15T22:30:23.378Z,8.00
2019-06-15T22:32:50.991Z,6.17
2019-06-15T22:35:18.645Z,6.63
2019-06-15T22:37:46.732Z,6.57
2019-06-15T22:40:16.527Z,7.73
2019-06-15T22:42:43.677Z,6.70
2019-06-15T22:45:11.241Z,7.80
2019-06-15T22:47:38.557Z,8.17
2019-06-15T22:50:06.908Z,10.60
2019-06-15T22:52:36.459Z,10.30
2019-06-15T22:55:05.915Z,9.93
2019-06-15T22:57:33.236Z,11.47
2019-06-15T23:00:00.358Z,7.83
2019-06-15T23:02:27.469Z,8.83
2019-06-15T23:04:56.628Z,9.97
2019-06-15T23:07:23.722Z,7.80
2019-06-15T23:09:51.333Z,7.07
2019-06-15T23:12:19.194Z,6.87
2019-06-15T23:14:46.679Z,6.57
2019-06-15T23:17:14.037Z,7.10
2019-06-15T23:19:41.716Z,6.70
2019-06-15T23:22:08.940Z,7.57
2019-06-15T23:24:37.256Z,6.87
2019-06-15T23:27:06.830Z,6.60
2019-06-15T23:29:33.957Z,7.50
2019-06-15T23:32:01.083Z,7.23
2019-06-15T23:34:28.849Z,7.53
2019-06-15T23:37:00.696Z,7.13
2019-06-15T23:39:27.117Z,7.20
2019-06-15T23:41:56.325Z,7.23
2019-06-15T23:44:23.469Z,8.43
2019-06-15T23:46:51.056Z,11.73
2019-06-15T23:49:18.368Z,8.07
2019-06-15T23:51:46.691Z,8.07
2019-06-15T23:54:14.457Z,8.00
2019-06-15T23:56:41.687Z,9.00
2019-06-15T23:59:09.176Z,8.17
